This is the latest recevied weather packets stored in our database for station/object TVARMINN. If no packets are shown the sender has not sent any weather packets the latest 10 day(s).
| Time | Temp. | Humidity | Pressure | Rain* | Wind** | Luminosity | Snow |
|---|---|---|---|---|---|---|---|
| 1788423884 | 17.22° C | 69% | 1006.3 hPa | 0 mm | - | - | - |
| 1788422685 | 17.22° C | 70% | 1006.3 hPa | 0 mm | - | - | - |
| 1788421482 | 16.67° C | 74% | 1006.2 hPa | 0 mm | - | - | - |
| 1788420282 | 16.67° C | 73% | 1006.1 hPa | 0 mm | - | - | - |
| 1788419082 | 16.67° C | 78% | 1006.1 hPa | 0 mm | - | - | - |
| 1788417883 | 16.67° C | 76% | 1006.1 hPa | 0 mm | - | - | - |
| 1788416681 | 16.67° C | 76% | 1006.1 hPa | 0 mm | - | - | - |
| 1788414072 | 16.11° C | 79% | 1006.2 hPa | 0 mm | - | - | - |
| 1788411881 | 15.56° C | 78% | 1006.2 hPa | 0 mm | - | - | - |
| 1788409482 | 15° C | 78% | 1006.3 hPa | 0 mm | - | - | - |
| 1788408282 | 15° C | 81% | 1006.3 hPa | 0 mm | - | - | - |
| 1788407082 | 13.89° C | 84% | 1006.3 hPa | 0 mm | - | - | - |
| 1788405882 | 14.44° C | 82% | 1006.3 hPa | 0 mm | - | - | - |
| 1788403481 | 14.44° C | 86% | 1006.3 hPa | 0 mm | - | - | - |
| 1788402283 | 14.44° C | 86% | 1006.4 hPa | 0 mm | - | - | - |
| 1788379479 | 16.11° C | 93% | 1008.1 hPa | 0 mm | - | - | - |
| 1788377081 | 16.11° C | 92% | 1008.2 hPa | 0 mm | - | - | - |
| 1788373478 | 16.11° C | 87% | 1008.4 hPa | 0 mm | - | - | - |
| 1788371080 | 15.56° C | 87% | 1008.4 hPa | 0 mm | - | - | - |
| 1788369878 | 16.11° C | 84% | 1008.5 hPa | 0 mm | - | - | - |
| 1788367479 | 16.67° C | 86% | 1008.4 hPa | 0 mm | - | - | - |
| 1788366279 | 16.67° C | 86% | 1008.4 hPa | 0 mm | - | - | - |
| 1788362678 | 17.78° C | 89% | 1008.5 hPa | 0 mm | - | - | - |
| 1788360277 | 17.78° C | 88% | 1008.7 hPa | 0 mm | - | - | - |
| 1788359080 | 18.33° C | 83% | 1008.7 hPa | 0 mm | - | - | - |
* Rain latest hour (hover to see other rain measurements)
** Current wind speed in m/s (hover to see current wind gust speed)